Time;durP1;ratioP1;P1;durP2;ratioP2;P2;SDS_P1;SDS_P2;PMS_P1;PMS_P2;Temp;Humidity;BMP_temperature;BMP_pressure;BME280_temperature;BME280_humidity;BME280_pressure;Samples;Min_cycle;Max_cycle;Signal;HPM_P1;HPM_P2
2023/03/16 00:02:17;;;;;;;6.75;5.13;;;;;;;;;;5125805;27;20060;-80
2023/03/16 00:04:46;;;;;;;8.57;5.63;;;;;;;;;;5119547;27;20125;-80
2023/03/16 00:07:12;;;;;;;8.40;5.53;;;;;;;;;;5118160;27;20154;-80
2023/03/16 00:09:42;;;;;;;11.55;5.53;;;;;;;;;;5122220;27;20061;-80
2023/03/16 00:12:14;;;;;;;6.40;5.22;;;;;;;;;;5119113;27;20051;-80
2023/03/16 00:14:42;;;;;;;7.50;5.38;;;;;;;;;;5126124;27;20083;-80
2023/03/16 00:17:09;;;;;;;7.88;5.10;;;;;;;;;;5130083;27;20047;-80
2023/03/16 00:19:35;;;;;;;5.97;5.15;;;;;;;;;;5128037;27;20086;-80
2023/03/16 00:22:01;;;;;;;9.32;5.55;;;;;;;;;;5134577;27;20042;-80
2023/03/16 00:24:27;;;;;;;6.57;5.28;;;;;;;;;;5127474;27;20051;-80
2023/03/16 00:26:53;;;;;;;7.97;5.28;;;;;;;;;;5145361;27;20073;-80
2023/03/16 00:29:21;;;;;;;6.18;5.13;;;;;;;;;;5127704;27;20070;-80
2023/03/16 00:31:47;;;;;;;7.63;5.43;;;;;;;;;;5130653;27;20082;-80
2023/03/16 00:34:14;;;;;;;7.15;5.28;;;;;;;;;;5151082;27;20085;-80
2023/03/16 00:36:41;;;;;;;7.93;5.28;;;;;;;;;;5142474;27;20482;-80
2023/03/16 00:39:10;;;;;;;8.50;5.70;;;;;;;;;;5126272;27;20043;-80
2023/03/16 00:41:36;;;;;;;6.47;5.50;;;;;;;;;;5149480;27;20035;-80
2023/03/16 00:44:08;;;;;;;5.75;5.00;;;;;;;;;;5148023;27;20077;-80
2023/03/16 00:46:34;;;;;;;9.40;5.60;;;;;;;;;;5133842;27;20042;-80
2023/03/16 00:49:01;;;;;;;7.32;5.35;;;;;;;;;;5148727;27;20444;-80
2023/03/16 00:51:29;;;;;;;8.00;5.45;;;;;;;;;;5149071;27;20045;-80
2023/03/16 00:53:55;;;;;;;8.40;6.13;;;;;;;;;;5147612;27;20047;-80
2023/03/16 00:56:21;;;;;;;8.35;5.80;;;;;;;;;;5146582;27;20035;-80
2023/03/16 00:58:47;;;;;;;8.00;5.20;;;;;;;;;;5149495;27;21711;-80
2023/03/16 01:01:17;;;;;;;9.18;5.57;;;;;;;;;;5122624;27;20047;-80
2023/03/16 01:03:43;;;;;;;9.70;5.47;;;;;;;;;;5121703;27;20043;-79
2023/03/16 01:06:15;;;;;;;6.03;5.32;;;;;;;;;;5124472;27;20038;-80
2023/03/16 01:08:42;;;;;;;8.65;5.43;;;;;;;;;;5133637;27;20517;-80
2023/03/16 01:11:09;;;;;;;6.75;5.55;;;;;;;;;;5124251;27;20046;-80
2023/03/16 01:13:36;;;;;;;7.93;5.18;;;;;;;;;;5146740;27;20394;-80
2023/03/16 01:16:02;;;;;;;7.82;5.97;;;;;;;;;;5123884;27;20039;-80
2023/03/16 01:18:33;;;;;;;6.20;5.53;;;;;;;;;;5137897;27;20046;-80
2023/03/16 01:20:59;;;;;;;8.35;5.72;;;;;;;;;;5130484;27;20046;-80
2023/03/16 01:23:25;;;;;;;8.73;5.60;;;;;;;;;;5129521;27;20100;-80
2023/03/16 01:25:53;;;;;;;7.15;5.65;;;;;;;;;;5124576;27;20054;-80
2023/03/16 01:28:22;;;;;;;6.93;5.60;;;;;;;;;;5138558;27;20499;-80
2023/03/16 01:30:48;;;;;;;7.32;5.05;;;;;;;;;;5124044;27;20753;-80
2023/03/16 01:33:14;;;;;;;5.80;5.00;;;;;;;;;;5141814;27;20626;-80
2023/03/16 01:35:40;;;;;;;7.72;5.63;;;;;;;;;;5145909;27;20366;-80
2023/03/16 01:38:06;;;;;;;7.53;5.43;;;;;;;;;;5151648;27;20493;-80
2023/03/16 01:40:32;;;;;;;6.43;5.35;;;;;;;;;;5124985;27;20046;-80
2023/03/16 01:43:03;;;;;;;8.75;5.95;;;;;;;;;;5135978;27;20051;-80
2023/03/16 01:45:47;;;;;;;7.70;4.95;;;;;;;;;;5148180;27;20075;-80
2023/03/16 01:48:14;;;;;;;5.82;5.05;;;;;;;;;;5133834;27;20046;-80
2023/03/16 01:50:41;;;;;;;6.78;5.18;;;;;;;;;;5132131;27;20043;-80
2023/03/16 01:53:07;;;;;;;6.35;5.28;;;;;;;;;;5130855;28;20039;-80
2023/03/16 01:55:33;;;;;;;9.93;6.05;;;;;;;;;;5125289;27;20058;-80
2023/03/16 01:58:00;;;;;;;8.65;5.22;;;;;;;;;;5119468;27;20047;-80
2023/03/16 02:00:30;;;;;;;7.22;5.45;;;;;;;;;;5121911;28;20090;-80
2023/03/16 02:02:59;;;;;;;8.93;5.68;;;;;;;;;;5142693;27;20524;-80
2023/03/16 02:05:34;;;;;;;7.72;5.80;;;;;;;;;;5131514;27;20042;-80
2023/03/16 02:08:01;;;;;;;7.07;5.60;;;;;;;;;;5143737;27;20084;-80
2023/03/16 02:10:28;;;;;;;7.47;5.20;;;;;;;;;;5117637;27;20046;-80
2023/03/16 02:12:54;;;;;;;8.15;5.50;;;;;;;;;;5119577;27;20397;-80
2023/03/16 02:15:21;;;;;;;7.60;5.55;;;;;;;;;;5119353;27;20479;-80
2023/03/16 02:17:48;;;;;;;7.80;5.28;;;;;;;;;;5119481;28;20116;-80
2023/03/16 02:20:21;;;;;;;9.70;5.68;;;;;;;;;;5118495;27;20070;-80
2023/03/16 02:22:47;;;;;;;;;;;;;;;;;;5125649;27;20046;-80
2023/03/16 02:25:15;;;;;;;6.63;5.32;;;;;;;;;;5120080;27;19923;-80
2023/03/16 02:27:50;;;;;;;8.10;5.30;;;;;;;;;;5128919;27;20051;-80
2023/03/16 02:30:17;;;;;;;5.65;5.05;;;;;;;;;;5129273;27;20054;-80
2023/03/16 02:32:45;;;;;;;8.00;5.03;;;;;;;;;;5125994;27;20473;-80
2023/03/16 02:35:11;;;;;;;6.53;4.70;;;;;;;;;;5127177;27;20557;-80
2023/03/16 02:37:38;;;;;;;6.28;5.03;;;;;;;;;;5143105;27;20069;-80
2023/03/16 02:40:17;;;;;;;8.27;5.47;;;;;;;;;;5124426;27;20039;-80
2023/03/16 02:42:43;;;;;;;7.57;5.45;;;;;;;;;;5141322;27;20034;-80
2023/03/16 02:45:10;;;;;;;8.30;5.57;;;;;;;;;;5127866;27;20452;-80
2023/03/16 02:47:41;;;;;;;7.90;5.55;;;;;;;;;;5124669;27;20035;-79
2023/03/16 02:50:07;;;;;;;7.50;5.35;;;;;;;;;;5122784;27;20047;-80
2023/03/16 02:52:37;;;;;;;7.88;5.70;;;;;;;;;;5145115;27;20043;-80
2023/03/16 02:55:05;;;;;;;8.82;5.70;;;;;;;;;;5136155;27;20049;-80
2023/03/16 02:57:31;;;;;;;7.90;5.47;;;;;;;;;;5154205;27;20035;-80
2023/03/16 02:59:57;;;;;;;9.18;5.65;;;;;;;;;;5149424;27;20114;-80
2023/03/16 03:02:23;;;;;;;7.22;5.70;;;;;;;;;;5155427;27;20041;-80
2023/03/16 03:04:53;;;;;;;6.65;5.85;;;;;;;;;;5133866;27;20051;-80
2023/03/16 03:07:19;;;;;;;7.43;6.35;;;;;;;;;;5153916;27;20088;-80
2023/03/16 03:09:45;;;;;;;8.65;6.25;;;;;;;;;;5135661;27;20054;-80
2023/03/16 03:12:12;;;;;;;9.50;6.03;;;;;;;;;;5127491;27;20046;-80
2023/03/16 03:14:38;;;;;;;8.25;6.05;;;;;;;;;;5147562;27;20039;-80
2023/03/16 03:17:06;;;;;;;9.70;6.53;;;;;;;;;;5143882;27;20035;-80
2023/03/16 03:19:33;;;;;;;8.65;5.63;;;;;;;;;;5132952;27;20050;-80
2023/03/16 03:22:02;;;;;;;8.13;5.68;;;;;;;;;;5139230;27;20500;-80
2023/03/16 03:24:28;;;;;;;9.70;6.50;;;;;;;;;;5126229;27;20054;-80
2023/03/16 03:26:54;;;;;;;7.65;5.75;;;;;;;;;;5125092;27;21075;-80
2023/03/16 03:29:20;;;;;;;9.95;6.15;;;;;;;;;;5128416;27;20088;-80
2023/03/16 03:31:46;;;;;;;8.30;6.28;;;;;;;;;;5127086;27;20058;-80
2023/03/16 03:34:12;;;;;;;8.80;6.32;;;;;;;;;;5123513;27;20070;-79
2023/03/16 03:36:40;;;;;;;8.82;6.70;;;;;;;;;;5131572;27;20049;-80
2023/03/16 03:39:06;;;;;;;8.88;6.45;;;;;;;;;;5129974;27;20050;-79
2023/03/16 03:41:33;;;;;;;10.93;6.82;;;;;;;;;;5142226;27;20541;-80
2023/03/16 03:43:59;;;;;;;8.48;6.15;;;;;;;;;;5142321;27;20079;-80
2023/03/16 03:46:25;;;;;;;11.07;6.82;;;;;;;;;;5145398;27;20500;-80
2023/03/16 03:48:52;;;;;;;9.13;7.00;;;;;;;;;;5120639;27;20071;-80
2023/03/16 03:51:17;;;;;;;13.30;7.15;;;;;;;;;;5123195;27;20047;-80
2023/03/16 03:53:43;;;;;;;9.32;7.38;;;;;;;;;;5123660;27;20050;-80
2023/03/16 03:56:10;;;;;;;11.60;7.18;;;;;;;;;;5123412;27;20413;-80
2023/03/16 03:58:36;;;;;;;10.20;6.93;;;;;;;;;;5142460;27;20074;-80
2023/03/16 04:01:02;;;;;;;9.13;7.00;;;;;;;;;;5123229;27;20054;-80
2023/03/16 04:03:28;;;;;;;10.68;7.30;;;;;;;;;;5140615;27;20051;-80
2023/03/16 04:05:55;;;;;;;10.70;7.20;;;;;;;;;;5123254;27;20107;-80
2023/03/16 04:08:21;;;;;;;10.73;7.78;;;;;;;;;;5125555;27;20042;-80
2023/03/16 04:10:47;;;;;;;8.98;7.38;;;;;;;;;;5142359;27;20371;-80
2023/03/16 04:13:13;;;;;;;9.05;6.70;;;;;;;;;;5118903;27;20061;-80
2023/03/16 04:15:40;;;;;;;9.13;7.30;;;;;;;;;;5123112;27;20039;-80
2023/03/16 04:18:06;;;;;;;10.38;7.10;;;;;;;;;;5128849;27;20042;-80
2023/03/16 04:20:32;;;;;;;10.82;7.85;;;;;;;;;;5143148;27;20035;-80
2023/03/16 04:22:58;;;;;;;11.07;7.43;;;;;;;;;;5147987;27;20049;-80
2023/03/16 04:25:25;;;;;;;10.18;7.20;;;;;;;;;;5130490;27;20145;-80
2023/03/16 04:27:51;;;;;;;9.52;7.03;;;;;;;;;;5142608;27;20034;-80
2023/03/16 04:30:17;;;;;;;8.80;6.70;;;;;;;;;;5132831;27;20178;-80
2023/03/16 04:32:44;;;;;;;10.70;7.25;;;;;;;;;;5148336;27;20035;-80
2023/03/16 04:35:10;;;;;;;11.10;7.68;;;;;;;;;;5146713;27;20047;-80
2023/03/16 04:37:36;;;;;;;10.15;7.68;;;;;;;;;;5131003;27;20129;-80
2023/03/16 04:40:14;;;;;;;8.60;7.40;;;;;;;;;;5133646;27;20066;-80
2023/03/16 04:42:40;;;;;;;13.07;7.03;;;;;;;;;;5133944;27;20186;-79
2023/03/16 04:45:07;;;;;;;11.27;7.57;;;;;;;;;;5141714;27;20114;-80
2023/03/16 04:47:33;;;;;;;9.85;7.63;;;;;;;;;;5143189;27;20043;-80
2023/03/16 04:50:01;;;;;;;9.70;7.13;;;;;;;;;;5123811;27;20478;-80
2023/03/16 04:52:27;;;;;;;9.95;7.70;;;;;;;;;;5125583;27;20054;-80
2023/03/16 04:54:53;;;;;;;9.48;7.10;;;;;;;;;;5146502;27;20043;-80
2023/03/16 04:57:19;;;;;;;11.55;8.10;;;;;;;;;;5124597;27;20047;-80
2023/03/16 04:59:45;;;;;;;9.93;7.30;;;;;;;;;;5124014;27;20045;-80
2023/03/16 05:02:11;;;;;;;10.15;7.13;;;;;;;;;;5141028;27;20381;-80
2023/03/16 05:04:37;;;;;;;10.57;8.13;;;;;;;;;;5123663;27;20031;-80
2023/03/16 05:07:04;;;;;;;9.45;7.30;;;;;;;;;;5136063;27;20061;-80
2023/03/16 05:09:30;;;;;;;11.82;8.38;;;;;;;;;;5143455;27;20131;-80
2023/03/16 05:11:56;;;;;;;11.07;7.82;;;;;;;;;;5122205;27;20103;-80
2023/03/16 05:14:22;;;;;;;11.40;8.48;;;;;;;;;;5116166;27;20129;-79
2023/03/16 05:16:48;;;;;;;10.80;8.07;;;;;;;;;;5122924;27;20046;-80
2023/03/16 05:19:14;;;;;;;9.73;7.85;;;;;;;;;;5134476;27;20118;-80
2023/03/16 05:21:40;;;;;;;12.05;8.18;;;;;;;;;;5121081;27;20047;-80
2023/03/16 05:24:06;;;;;;;10.90;8.30;;;;;;;;;;5122272;27;20046;-79
2023/03/16 05:26:33;;;;;;;11.07;7.97;;;;;;;;;;5124711;27;20042;-80
2023/03/16 05:28:59;;;;;;;13.90;7.88;;;;;;;;;;5141846;27;20130;-80
2023/03/16 05:31:26;;;;;;;9.25;6.88;;;;;;;;;;5127858;27;20051;-80
2023/03/16 05:33:53;;;;;;;8.82;7.25;;;;;;;;;;5124460;27;20057;-80
2023/03/16 05:36:19;;;;;;;11.10;7.75;;;;;;;;;;5139010;27;20124;-80
2023/03/16 05:38:46;;;;;;;11.00;7.95;;;;;;;;;;5139837;27;20038;-80
2023/03/16 05:41:13;;;;;;;12.68;7.50;;;;;;;;;;5119235;27;20709;-80
2023/03/16 05:43:39;;;;;;;9.82;7.85;;;;;;;;;;5138602;27;20050;-80
2023/03/16 05:46:05;;;;;;;10.95;8.45;;;;;;;;;;5119590;27;20043;-80
2023/03/16 05:48:31;;;;;;;9.93;7.85;;;;;;;;;;5119898;27;20053;-80
2023/03/16 05:50:57;;;;;;;11.98;8.25;;;;;;;;;;5122999;27;20493;-80
2023/03/16 05:53:27;;;;;;;10.30;8.07;;;;;;;;;;5139804;27;20039;-80
2023/03/16 05:55:53;;;;;;;12.23;8.20;;;;;;;;;;5120308;27;20600;-80
2023/03/16 05:58:20;;;;;;;10.63;8.18;;;;;;;;;;5123970;27;20672;-80
2023/03/16 06:00:46;;;;;;;13.32;8.45;;;;;;;;;;5142643;27;20034;-80
2023/03/16 06:03:12;;;;;;;13.27;7.97;;;;;;;;;;5128200;27;20054;-80
2023/03/16 06:05:38;;;;;;;10.23;7.90;;;;;;;;;;5123735;27;20062;-80
2023/03/16 06:08:04;;;;;;;10.10;8.30;;;;;;;;;;5141451;27;20050;-80
2023/03/16 06:10:30;;;;;;;12.30;8.40;;;;;;;;;;5144571;27;20038;-80
2023/03/16 06:12:56;;;;;;;12.10;8.48;;;;;;;;;;5130407;27;20375;-80
2023/03/16 06:15:25;;;;;;;11.77;8.52;;;;;;;;;;5149166;27;20041;-79
2023/03/16 06:17:51;;;;;;;11.40;8.23;;;;;;;;;;5125972;27;20120;-80
2023/03/16 06:20:17;;;;;;;11.05;8.30;;;;;;;;;;5131049;27;20106;-79
2023/03/16 06:22:44;;;;;;;10.93;8.65;;;;;;;;;;5133484;27;20863;-80
2023/03/16 06:25:11;;;;;;;10.30;7.75;;;;;;;;;;5133613;27;20043;-80
2023/03/16 06:27:37;;;;;;;12.15;7.75;;;;;;;;;;5128898;27;20065;-79
2023/03/16 06:30:05;;;;;;;11.85;8.32;;;;;;;;;;5132468;27;20124;-80
2023/03/16 06:32:31;;;;;;;9.93;8.20;;;;;;;;;;5132587;27;20052;-80
2023/03/16 06:35:00;;;;;;;11.57;7.88;;;;;;;;;;5128842;27;20433;-80
2023/03/16 06:37:27;;;;;;;10.23;6.57;;;;;;;;;;5131354;27;20117;-81
2023/03/16 06:39:53;;;;;;;12.00;7.72;;;;;;;;;;5124712;27;20043;-80
2023/03/16 06:42:19;;;;;;;11.88;7.60;;;;;;;;;;5122833;27;20043;-80
2023/03/16 06:44:45;;;;;;;9.07;6.78;;;;;;;;;;5151370;27;20038;-80
2023/03/16 06:47:11;;;;;;;10.55;7.25;;;;;;;;;;5123565;27;20397;-80
2023/03/16 06:49:37;;;;;;;8.73;6.85;;;;;;;;;;5132202;27;20051;-80
2023/03/16 06:52:03;;;;;;;10.80;7.75;;;;;;;;;;5146312;27;20474;-80
2023/03/16 06:54:31;;;;;;;9.95;7.18;;;;;;;;;;5120537;27;20086;-80
2023/03/16 06:56:57;;;;;;;11.80;8.07;;;;;;;;;;5150749;27;20039;-79
2023/03/16 06:59:23;;;;;;;9.25;6.57;;;;;;;;;;5126563;27;20046;-79
2023/03/16 07:01:49;;;;;;;10.77;7.22;;;;;;;;;;5142757;27;20047;-79
2023/03/16 07:04:15;;;;;;;8.98;6.45;;;;;;;;;;5125226;27;20050;-80
2023/03/16 07:06:41;;;;;;;8.85;6.10;;;;;;;;;;5142721;27;20050;-80
2023/03/16 07:09:08;;;;;;;9.73;7.13;;;;;;;;;;5125104;27;20074;-80
2023/03/16 07:11:34;;;;;;;9.90;6.97;;;;;;;;;;5141950;27;20035;-80
2023/03/16 07:14:00;;;;;;;10.00;6.63;;;;;;;;;;5144417;27;20095;-79
2023/03/16 07:16:27;;;;;;;8.00;6.38;;;;;;;;;;5143796;27;20042;-80
2023/03/16 07:18:53;;;;;;;9.05;6.55;;;;;;;;;;5132735;27;20038;-80
2023/03/16 07:21:19;;;;;;;9.60;6.38;;;;;;;;;;5131313;27;20462;-80
2023/03/16 07:23:45;;;;;;;7.35;5.63;;;;;;;;;;5125908;27;20054;-80
2023/03/16 07:26:11;;;;;;;11.30;6.68;;;;;;;;;;5117595;27;20114;-80
2023/03/16 07:28:38;;;;;;;10.07;5.82;;;;;;;;;;5127947;27;20494;-80
2023/03/16 07:31:04;;;;;;;10.02;5.45;;;;;;;;;;5121765;27;20473;-80
2023/03/16 07:33:31;;;;;;;9.38;6.00;;;;;;;;;;5123201;27;20405;-79
2023/03/16 07:35:57;;;;;;;9.00;6.30;;;;;;;;;;5141698;27;20125;-80
2023/03/16 07:38:23;;;;;;;10.30;6.40;;;;;;;;;;5141311;27;20467;-79
2023/03/16 07:40:51;;;;;;;8.57;6.10;;;;;;;;;;5122136;27;20058;-80
2023/03/16 07:43:17;;;;;;;12.35;5.97;;;;;;;;;;5124507;27;20135;-80
2023/03/16 07:45:48;;;;;;;9.75;6.47;;;;;;;;;;5144792;27;20446;-80
2023/03/16 07:48:14;;;;;;;9.85;6.45;;;;;;;;;;5133007;27;20043;-80
2023/03/16 07:50:40;;;;;;;7.88;5.85;;;;;;;;;;5135494;27;20417;-80
2023/03/16 07:53:06;;;;;;;11.00;6.10;;;;;;;;;;5151912;27;20054;-80
2023/03/16 07:55:35;;;;;;;7.57;5.25;;;;;;;;;;5131423;27;21858;-80
2023/03/16 07:58:01;;;;;;;9.68;6.32;;;;;;;;;;5128307;27;20482;-80
2023/03/16 08:00:27;;;;;;;11.20;6.10;;;;;;;;;;5153080;27;20049;-80
2023/03/16 08:02:55;;;;;;;8.85;6.47;;;;;;;;;;5147605;27;20102;-79
2023/03/16 08:05:21;;;;;;;10.05;6.15;;;;;;;;;;5128987;27;20121;-80
2023/03/16 08:07:47;;;;;;;10.68;6.35;;;;;;;;;;5131167;27;20043;-79
2023/03/16 08:10:13;;;;;;;8.70;6.25;;;;;;;;;;5133954;27;20090;-80
2023/03/16 08:12:40;;;;;;;8.90;5.78;;;;;;;;;;5133403;27;20221;-78
2023/03/16 08:15:07;;;;;;;8.02;6.13;;;;;;;;;;5131985;27;20043;-79
2023/03/16 08:17:33;;;;;;;11.27;5.90;;;;;;;;;;5130808;27;20043;-79
2023/03/16 08:19:59;;;;;;;8.60;6.45;;;;;;;;;;5152778;27;20038;-80
2023/03/16 08:22:25;;;;;;;7.18;5.95;;;;;;;;;;5149852;27;20520;-80
2023/03/16 08:24:51;;;;;;;9.23;5.43;;;;;;;;;;5150461;27;20042;-80
2023/03/16 08:27:19;;;;;;;7.63;5.57;;;;;;;;;;5132641;27;20039;-80
2023/03/16 08:29:46;;;;;;;8.98;5.88;;;;;;;;;;5129268;27;20142;-80
2023/03/16 08:32:12;;;;;;;9.38;5.70;;;;;;;;;;5125984;27;20505;-78
2023/03/16 08:34:38;;;;;;;9.95;5.28;;;;;;;;;;5144036;27;20678;-79
2023/03/16 08:37:05;;;;;;;12.38;6.03;;;;;;;;;;5144221;27;20094;-79
2023/03/16 08:39:32;;;;;;;7.45;5.43;;;;;;;;;;5118729;27;20124;-80
2023/03/16 08:41:58;;;;;;;7.97;5.13;;;;;;;;;;5139854;27;22307;-79
2023/03/16 08:44:25;;;;;;;8.60;5.40;;;;;;;;;;5138307;27;20042;-79
2023/03/16 08:46:51;;;;;;;7.10;4.55;;;;;;;;;;5142062;27;20070;-79
2023/03/16 08:49:19;;;;;;;8.10;5.43;;;;;;;;;;5118852;27;20067;-79
2023/03/16 08:51:46;;;;;;;11.57;5.93;;;;;;;;;;5118048;27;20046;-79
2023/03/16 08:54:12;;;;;;;8.25;5.32;;;;;;;;;;5136527;27;20810;-78
2023/03/16 08:56:38;;;;;;;7.65;4.82;;;;;;;;;;5135600;27;20095;-78
2023/03/16 08:59:04;;;;;;;8.48;5.13;;;;;;;;;;5134940;27;20440;-79
2023/03/16 09:01:30;;;;;;;6.82;4.55;;;;;;;;;;5118305;27;20149;-80
2023/03/16 09:03:57;;;;;;;7.55;5.03;;;;;;;;;;5119057;27;20047;-78
2023/03/16 09:06:23;;;;;;;6.95;4.97;;;;;;;;;;5140682;27;20042;-79
2023/03/16 09:08:49;;;;;;;5.05;4.55;;;;;;;;;;5117201;27;20047;-79
2023/03/16 09:11:16;;;;;;;9.13;4.80;;;;;;;;;;5116841;27;20041;-79
2023/03/16 09:13:43;;;;;;;7.32;4.28;;;;;;;;;;5133818;27;20414;-79
2023/03/16 09:16:10;;;;;;;10.93;5.30;;;;;;;;;;5117973;27;20666;-79
2023/03/16 09:18:37;;;;;;;7.22;5.18;;;;;;;;;;5116772;27;20043;-79
2023/03/16 09:21:04;;;;;;;6.80;4.95;;;;;;;;;;5118827;27;20102;-79
2023/03/16 09:23:33;;;;;;;7.00;4.90;;;;;;;;;;5120463;27;20051;-79
2023/03/16 09:26:03;;;;;;;7.13;4.90;;;;;;;;;;5117621;27;20043;-79
2023/03/16 09:28:30;;;;;;;8.57;4.68;;;;;;;;;;5116058;27;20394;-78
2023/03/16 09:30:56;;;;;;;6.82;4.80;;;;;;;;;;5130200;27;20039;-79
2023/03/16 09:33:23;;;;;;;6.88;5.18;;;;;;;;;;5125666;27;20043;-79
2023/03/16 09:35:50;;;;;;;9.23;5.60;;;;;;;;;;5145368;27;20525;-79
2023/03/16 09:38:17;;;;;;;6.10;5.03;;;;;;;;;;5130716;27;20047;-79
2023/03/16 09:40:43;;;;;;;7.50;5.38;;;;;;;;;;5136216;27;20078;-79
2023/03/16 09:43:21;;;;;;;7.43;5.30;;;;;;;;;;5122556;27;20039;-80
2023/03/16 09:46:09;;;;;;;8.02;4.75;;;;;;;;;;5119367;27;20043;-79
2023/03/16 09:48:36;;;;;;;8.15;5.15;;;;;;;;;;5122693;27;20504;-80
2023/03/16 09:51:07;;;;;;;10.40;5.28;;;;;;;;;;5128272;27;20046;-79
2023/03/16 09:53:35;;;;;;;6.82;5.07;;;;;;;;;;5121166;27;20031;-79
2023/03/16 09:56:05;;;;;;;8.13;5.32;;;;;;;;;;5133324;27;20058;-79
2023/03/16 09:58:31;;;;;;;7.35;5.50;;;;;;;;;;5122675;27;20473;-79
2023/03/16 10:01:08;;;;;;;8.32;5.32;;;;;;;;;;5120307;27;20046;-79
2023/03/16 10:03:34;;;;;;;6.78;4.88;;;;;;;;;;5149444;27;20482;-79
2023/03/16 10:06:02;;;;;;;7.30;5.72;;;;;;;;;;5126517;27;20039;-79
2023/03/16 10:08:43;;;;;;;10.50;5.93;;;;;;;;;;5142123;27;20417;-79
2023/03/16 10:11:24;;;;;;;6.88;5.22;;;;;;;;;;5120175;27;20041;-78
2023/03/16 10:14:03;;;;;;;7.20;5.82;;;;;;;;;;5116519;27;20050;-79
2023/03/16 10:16:36;;;;;;;8.45;5.50;;;;;;;;;;5119618;27;20061;-79
2023/03/16 10:19:07;;;;;;;12.27;5.93;;;;;;;;;;5121635;27;20061;-79
2023/03/16 10:21:37;;;;;;;8.10;5.45;;;;;;;;;;5129585;27;20532;-79
2023/03/16 10:24:04;;;;;;;9.05;5.57;;;;;;;;;;5120551;27;20076;-79
2023/03/16 10:26:37;;;;;;;7.85;5.55;;;;;;;;;;5143736;27;20047;-79
2023/03/16 10:29:03;;;;;;;;;;;;;;;;;;5130814;27;20054;-79
2023/03/16 10:31:29;;;;;;;8.63;5.80;;;;;;;;;;5125310;27;19926;-79
2023/03/16 10:34:01;;;;;;;6.72;4.90;;;;;;;;;;5128997;28;20355;-79
2023/03/16 10:36:38;;;;;;;8.32;5.30;;;;;;;;;;5136699;27;20054;-79
2023/03/16 10:39:10;;;;;;;8.18;5.50;;;;;;;;;;5139720;27;20035;-79
2023/03/16 10:41:37;;;;;;;7.28;4.88;;;;;;;;;;5135017;27;20125;-78
2023/03/16 10:44:21;;;;;;;9.82;5.80;;;;;;;;;;5123336;27;20054;-79
2023/03/16 10:46:47;;;;;;;;;;;;;;;;;;5124071;27;24336;-79
2023/03/16 10:49:26;;;;;;;7.28;5.10;;;;;;;;;;5121409;27;20385;-79
2023/03/16 10:51:54;;;;;;;7.63;5.43;;;;;;;;;;5142910;27;20039;-79
2023/03/16 10:54:32;;;;;;;6.38;5.45;;;;;;;;;;5126111;27;20038;-79
2023/03/16 10:56:59;;;;;;;7.63;5.45;;;;;;;;;;5127888;27;20562;-79
2023/03/16 10:59:33;;;;;;;8.43;5.25;;;;;;;;;;5125281;27;20126;-79
2023/03/16 11:02:11;;;;;;;8.30;5.65;;;;;;;;;;5148989;27;20038;-79
2023/03/16 11:04:37;;;;;;;7.80;5.30;;;;;;;;;;5144983;27;20043;-79
2023/03/16 11:07:08;;;;;;;7.75;5.35;;;;;;;;;;5144324;27;20389;-79
2023/03/16 11:09:34;;;;;;;9.80;5.38;;;;;;;;;;5148809;27;20066;-79
2023/03/16 11:12:12;;;;;;;6.97;5.30;;;;;;;;;;5141502;27;20077;-79
2023/03/16 11:14:43;;;;;;;5.88;5.18;;;;;;;;;;5141027;27;20455;-79
2023/03/16 11:17:15;;;;;;;7.57;5.20;;;;;;;;;;5122286;27;20051;-80
2023/03/16 11:19:44;;;;;;;7.28;5.22;;;;;;;;;;5124635;27;20081;-79
2023/03/16 11:22:14;;;;;;;7.47;5.43;;;;;;;;;;5140390;27;20093;-79
2023/03/16 11:24:43;;;;;;;7.43;5.10;;;;;;;;;;5139467;27;20134;-79
2023/03/16 11:27:16;;;;;;;7.75;5.22;;;;;;;;;;5121164;27;20043;-79
2023/03/16 11:29:52;;;;;;;7.00;5.57;;;;;;;;;;5121610;27;20069;-79
2023/03/16 11:32:20;;;;;;;8.45;5.20;;;;;;;;;;5122638;27;20505;-79
2023/03/16 11:34:47;;;;;;;7.07;4.93;;;;;;;;;;5124493;27;20039;-78
2023/03/16 11:37:35;;;;;;;6.43;5.22;;;;;;;;;;5126478;27;20035;-79
2023/03/16 11:40:20;;;;;;;6.95;5.30;;;;;;;;;;5131003;27;20513;-78
2023/03/16 11:43:05;;;;;;;6.65;5.18;;;;;;;;;;5123915;27;20047;-78
2023/03/16 11:45:44;;;;;;;7.55;5.15;;;;;;;;;;5125089;27;20074;-79
2023/03/16 11:48:24;;;;;;;7.20;5.00;;;;;;;;;;5144363;27;20063;-79
2023/03/16 11:50:58;;;;;;;8.25;5.22;;;;;;;;;;5150848;27;20034;-79
2023/03/16 11:53:24;;;;;;;8.80;5.60;;;;;;;;;;5123997;27;20047;-79
2023/03/16 11:55:50;;;;;;;6.03;4.90;;;;;;;;;;5122122;27;20088;-79
2023/03/16 11:58:16;;;;;;;9.50;5.28;;;;;;;;;;5147357;27;20035;-79
2023/03/16 12:00:57;;;;;;;5.75;4.88;;;;;;;;;;5144851;27;20096;-79
2023/03/16 12:03:33;;;;;;;9.52;5.10;;;;;;;;;;5126466;27;20051;-79
2023/03/16 12:06:02;;;;;;;6.68;5.30;;;;;;;;;;5141536;27;20038;-80
2023/03/16 12:08:29;;;;;;;7.93;5.20;;;;;;;;;;5137858;27;20793;-79
2023/03/16 12:11:30;;;;;;;8.23;5.40;;;;;;;;;;5119555;27;20047;-79
2023/03/16 12:14:06;;;;;;;6.22;4.90;;;;;;;;;;5024037;28;20500;-79
2023/03/16 12:16:37;;;;;;;6.47;5.05;;;;;;;;;;5112353;27;20085;-79
2023/03/16 12:19:05;;;;;;;6.80;5.25;;;;;;;;;;5143554;27;20118;-79
2023/03/16 12:21:33;;;;;;;8.45;5.30;;;;;;;;;;5128623;27;20062;-79
2023/03/16 12:24:05;;;;;;;9.70;5.35;;;;;;;;;;5124869;27;20459;-79
2023/03/16 12:26:33;;;;;;;7.43;5.30;;;;;;;;;;5129488;27;20056;-79
2023/03/16 12:29:04;;;;;;;7.85;5.70;;;;;;;;;;5125426;27;20050;-79
2023/03/16 12:31:30;;;;;;;5.78;4.88;;;;;;;;;;5147865;27;20572;-79
2023/03/16 12:34:06;;;;;;;8.07;5.32;;;;;;;;;;5132364;27;20551;-79
2023/03/16 12:37:02;;;;;;;8.90;5.75;;;;;;;;;;5124512;27;20100;-79
2023/03/16 12:39:48;;;;;;;8.57;5.47;;;;;;;;;;5099297;27;20054;-79
2023/03/16 12:42:28;;;;;;;8.45;5.60;;;;;;;;;;5120581;27;20050;-79
2023/03/16 12:44:56;;;;;;;7.43;5.85;;;;;;;;;;5126068;27;20053;-79
2023/03/16 12:47:22;;;;;;;7.15;5.35;;;;;;;;;;5126565;27;20042;-79
2023/03/16 12:49:50;;;;;;;5.53;4.57;;;;;;;;;;5142216;27;20550;-80
2023/03/16 12:52:17;;;;;;;7.82;4.95;;;;;;;;;;5124714;27;20045;-79
2023/03/16 12:54:51;;;;;;;6.70;5.30;;;;;;;;;;5118759;27;20053;-78
2023/03/16 12:57:17;;;;;;;9.80;5.93;;;;;;;;;;5133093;27;20042;-77
2023/03/16 12:59:49;;;;;;;7.60;5.18;;;;;;;;;;5132537;27;20103;-79
2023/03/16 13:02:35;;;;;;;7.47;5.10;;;;;;;;;;5115042;27;20051;-81
2023/03/16 13:05:22;;;;;;;6.28;5.22;;;;;;;;;;5119842;27;21321;-81
2023/03/16 13:07:49;;;;;;;6.32;4.90;;;;;;;;;;5118423;27;20043;-80
2023/03/16 13:10:19;;;;;;;9.23;5.90;;;;;;;;;;5133810;27;20121;-80
2023/03/16 13:12:46;;;;;;;7.32;5.22;;;;;;;;;;5128627;27;20043;-80
2023/03/16 13:15:19;;;;;;;5.82;5.10;;;;;;;;;;5118815;27;20076;-79
2023/03/16 13:17:45;;;;;;;5.68;5.00;;;;;;;;;;5133488;27;20055;-80
2023/03/16 13:20:30;;;;;;;8.73;5.30;;;;;;;;;;5139096;27;20091;-80
2023/03/16 13:23:09;;;;;;;6.45;5.25;;;;;;;;;;5133802;27;20141;-81
2023/03/16 13:25:41;;;;;;;6.35;5.05;;;;;;;;;;5151270;27;20064;-81
2023/03/16 13:28:11;;;;;;;6.60;5.15;;;;;;;;;;5150358;27;20042;-82
2023/03/16 13:30:42;;;;;;;8.27;5.10;;;;;;;;;;5152833;27;20125;-81
2023/03/16 13:33:23;;;;;;;8.00;5.20;;;;;;;;;;5133625;27;20505;-81
2023/03/16 13:35:51;;;;;;;7.97;5.18;;;;;;;;;;5140441;27;20145;-81
2023/03/16 13:38:18;;;;;;;7.03;5.50;;;;;;;;;;5134800;27;20070;-80
2023/03/16 13:40:45;;;;;;;8.23;5.82;;;;;;;;;;5129100;27;20065;-79
2023/03/16 13:43:19;;;;;;;9.38;5.80;;;;;;;;;;5134338;27;20818;-79
2023/03/16 13:45:45;;;;;;;6.50;5.25;;;;;;;;;;5141461;27;20589;-79
2023/03/16 13:48:12;;;;;;;7.72;5.65;;;;;;;;;;5126808;27;20061;-80
2023/03/16 13:50:40;;;;;;;7.80;5.53;;;;;;;;;;5124996;27;20042;-80
2023/03/16 13:53:27;;;;;;;8.07;4.93;;;;;;;;;;5132901;27;20095;-80
2023/03/16 13:55:54;;;;;;;11.25;5.75;;;;;;;;;;5132837;27;20078;-80
2023/03/16 13:58:39;;;;;;;10.23;5.97;;;;;;;;;;5134383;27;20454;-80
2023/03/16 14:01:11;;;;;;;6.82;5.18;;;;;;;;;;5128827;27;20122;-81
2023/03/16 14:03:40;;;;;;;7.15;5.63;;;;;;;;;;5133644;27;20522;-80
2023/03/16 14:06:07;;;;;;;7.90;5.93;;;;;;;;;;5132213;27;20049;-80
2023/03/16 14:08:33;;;;;;;6.65;5.07;;;;;;;;;;5148952;27;20042;-79
2023/03/16 14:10:59;;;;;;;8.63;4.85;;;;;;;;;;5150237;27;20108;-78
2023/03/16 14:13:31;;;;;;;7.97;4.78;;;;;;;;;;5148815;27;20035;-78
2023/03/16 14:16:18;;;;;;;11.13;5.60;;;;;;;;;;5126131;27;20965;-78
2023/03/16 14:18:47;;;;;;;6.85;5.28;;;;;;;;;;5150012;27;20116;-80
2023/03/16 14:21:15;;;;;;;8.20;5.35;;;;;;;;;;5153758;27;20065;-79
2023/03/16 14:23:43;;;;;;;8.60;5.80;;;;;;;;;;5132067;27;20130;-80
2023/03/16 14:26:12;;;;;;;8.45;5.63;;;;;;;;;;5150505;27;20050;-79
2023/03/16 14:28:38;;;;;;;7.60;5.70;;;;;;;;;;5151733;27;20124;-79
2023/03/16 14:31:18;;;;;;;9.02;5.60;;;;;;;;;;5134661;27;20530;-80
2023/03/16 14:33:44;;;;;;;6.50;5.20;;;;;;;;;;5128451;27;20479;-79
2023/03/16 14:36:16;;;;;;;7.75;5.32;;;;;;;;;;5149322;27;20678;-79
2023/03/16 14:38:43;;;;;;;7.47;4.95;;;;;;;;;;5148109;27;20050;-79
2023/03/16 14:41:12;;;;;;;7.38;5.20;;;;;;;;;;5130711;27;20034;-79
2023/03/16 14:43:45;;;;;;;7.68;5.32;;;;;;;;;;5147238;27;20386;-79
2023/03/16 14:46:14;;;;;;;7.85;5.15;;;;;;;;;;5125403;27;20171;-79
2023/03/16 14:48:40;;;;;;;8.20;5.72;;;;;;;;;;5147709;27;20043;-79
2023/03/16 14:51:11;;;;;;;8.07;5.72;;;;;;;;;;5132363;27;20338;-79